createdAt,value
2023-03-02T00:02:34.246Z,1.02
2023-03-02T00:07:38.332Z,0.70
2023-03-02T00:12:41.417Z,0.88
2023-03-02T00:17:44.419Z,0.73
2023-03-02T00:22:48.573Z,1.10
2023-03-02T00:27:51.617Z,0.80
2023-03-02T00:32:54.652Z,1.33
2023-03-02T00:37:57.752Z,0.85
2023-03-02T00:43:00.881Z,0.80
2023-03-02T00:48:04.070Z,0.80
2023-03-02T00:53:09.651Z,1.05
2023-03-02T00:58:12.670Z,0.88
2023-03-02T01:03:15.764Z,0.73
2023-03-02T01:08:18.970Z,1.08
2023-03-02T01:13:22.055Z,0.82
2023-03-02T01:18:25.056Z,0.90
2023-03-02T01:23:28.062Z,1.05
2023-03-02T01:28:31.166Z,0.73
2023-03-02T01:33:34.602Z,1.05
2023-03-02T01:38:37.800Z,0.93
2023-03-02T01:43:40.894Z,0.82
2023-03-02T01:48:54.579Z,1.23
2023-03-02T01:54:17.498Z,0.80
2023-03-02T01:59:23.388Z,0.90
2023-03-02T02:04:29.313Z,1.00
2023-03-02T02:09:40.025Z,1.50
2023-03-02T02:14:44.277Z,1.10
2023-03-02T02:20:15.217Z,1.40
2023-03-02T02:25:44.655Z,1.25
2023-03-02T02:30:51.107Z,1.67
2023-03-02T02:36:02.231Z,1.55
2023-03-02T02:41:11.950Z,1.90
2023-03-02T02:46:15.184Z,1.35
2023-03-02T02:51:28.153Z,1.42
2023-03-02T02:56:37.990Z,1.25
2023-03-02T03:01:43.795Z,1.35
2023-03-02T03:06:57.540Z,1.15
2023-03-02T03:17:16.849Z,1.00
2023-03-02T03:22:28.731Z,1.00
2023-03-02T03:27:32.800Z,1.02
2023-03-02T03:32:38.017Z,1.25
2023-03-02T03:37:42.485Z,1.38
2023-03-02T03:42:47.073Z,1.27
2023-03-02T03:47:50.409Z,1.23
2023-03-02T03:52:53.593Z,1.58
2023-03-02T03:58:01.560Z,1.30
2023-03-02T04:03:05.567Z,1.50
2023-03-02T04:08:09.985Z,1.52
2023-03-02T04:13:13.492Z,2.05
2023-03-02T04:18:16.891Z,2.15
2023-03-02T04:23:20.094Z,2.85
2023-03-02T04:28:23.614Z,1.98
2023-03-02T04:33:27.463Z,3.13
2023-03-02T04:38:30.892Z,3.03
2023-03-02T04:43:34.509Z,2.85
2023-03-02T04:48:37.542Z,2.30
2023-03-02T04:53:40.655Z,2.53
2023-03-02T04:58:43.812Z,2.53
2023-03-02T05:03:47.007Z,2.78
2023-03-02T05:08:50.216Z,3.05
2023-03-02T05:13:56.530Z,2.22
2023-03-02T05:19:00.790Z,2.38
2023-03-02T05:24:04.442Z,2.33
2023-03-02T05:29:07.934Z,2.03
2023-03-02T05:34:13.755Z,2.28
2023-03-02T05:39:16.972Z,1.35
2023-03-02T05:44:20.159Z,1.20
2023-03-02T05:49:23.353Z,1.58
2023-03-02T05:54:26.406Z,1.55
2023-03-02T05:59:29.408Z,2.00
2023-03-02T06:04:32.509Z,2.30
2023-03-02T06:09:35.658Z,1.92
2023-03-02T06:14:38.846Z,2.13
2023-03-02T06:19:41.865Z,1.33
2023-03-02T06:24:45.239Z,1.67
2023-03-02T06:29:48.407Z,2.45
2023-03-02T06:34:51.469Z,1.67
2023-03-02T06:39:55.907Z,1.95
2023-03-02T06:44:58.974Z,2.63
2023-03-02T06:50:01.997Z,2.22
2023-03-02T06:55:07.076Z,2.53
2023-03-02T07:00:17.650Z,2.17
2023-03-02T07:05:21.473Z,2.53
2023-03-02T07:10:25.003Z,1.73
2023-03-02T07:15:28.181Z,1.83
2023-03-02T07:20:31.411Z,1.27
2023-03-02T07:25:34.601Z,1.38
2023-03-02T07:30:37.712Z,1.83
2023-03-02T07:35:40.769Z,1.25
2023-03-02T07:40:45.367Z,1.25
2023-03-02T07:45:48.435Z,1.20
2023-03-02T07:50:51.533Z,0.93
2023-03-02T07:55:54.621Z,1.10
2023-03-02T08:00:57.792Z,1.45
2023-03-02T08:06:10.392Z,4.20
2023-03-02T08:11:16.206Z,2.50
2023-03-02T08:16:56.758Z,1.00
2023-03-02T08:22:01.094Z,1.15
2023-03-02T08:27:04.838Z,1.27
2023-03-02T08:32:08.555Z,1.48
2023-03-02T08:37:11.744Z,1.15
2023-03-02T08:42:15.507Z,0.88
2023-03-02T08:47:18.617Z,1.58
2023-03-02T08:52:21.729Z,1.02
2023-03-02T08:57:24.761Z,2.30
2023-03-02T09:02:27.761Z,1.23
2023-03-02T09:07:31.042Z,0.80
2023-03-02T09:12:34.069Z,0.70
2023-03-02T09:17:37.126Z,1.17
2023-03-02T09:22:40.620Z,0.60
2023-03-02T09:27:43.648Z,0.75
2023-03-02T09:32:46.922Z,1.40
2023-03-02T09:37:50.068Z,0.40
2023-03-02T09:43:21.927Z,0.40
2023-03-02T09:48:40.698Z,0.45
2023-03-02T09:54:13.866Z,0.50
2023-03-02T09:59:38.310Z,1.23
2023-03-02T10:04:49.520Z,0.85
2023-03-02T10:09:53.059Z,0.98
2023-03-02T10:15:02.420Z,0.82
2023-03-02T10:20:19.751Z,0.50
2023-03-02T10:25:30.962Z,0.60
2023-03-02T10:30:40.447Z,0.55
2023-03-02T10:35:48.373Z,0.40
2023-03-02T10:41:08.893Z,0.50
2023-03-02T10:46:14.007Z,0.57
2023-03-02T10:51:31.860Z,1.08
2023-03-02T10:56:35.462Z,1.38
2023-03-02T11:01:40.780Z,0.90
2023-03-02T11:06:43.821Z,0.60
2023-03-02T11:11:54.773Z,0.77
2023-03-02T11:17:01.416Z,0.82
2023-03-02T11:22:26.924Z,0.45
2023-03-02T11:27:34.157Z,0.70
2023-03-02T11:32:45.528Z,0.40
2023-03-02T11:37:52.349Z,0.80
2023-03-02T11:42:58.680Z,0.70
2023-03-02T11:48:12.906Z,0.55
2023-03-02T11:53:21.188Z,2.10
2023-03-02T11:58:27.213Z,0.80
2023-03-02T12:03:33.029Z,0.68
2023-03-02T12:08:40.549Z,1.10
2023-03-02T12:13:45.506Z,0.57
2023-03-02T12:18:50.305Z,0.60
2023-03-02T12:23:58.548Z,0.88
2023-03-02T12:29:06.152Z,0.68
2023-03-02T12:34:58.272Z,0.98
2023-03-02T12:40:43.696Z,1.52
2023-03-02T12:45:58.166Z,0.90
2023-03-02T12:51:03.446Z,0.68
2023-03-02T12:56:09.171Z,1.58
2023-03-02T13:01:22.200Z,1.17
2023-03-02T13:06:30.282Z,0.80
2023-03-02T13:11:36.546Z,0.80
2023-03-02T13:16:39.695Z,0.82
2023-03-02T13:21:43.222Z,1.13
2023-03-02T13:26:56.117Z,1.20
2023-03-02T13:32:16.095Z,0.88
2023-03-02T13:37:34.758Z,0.85
2023-03-02T13:42:41.712Z,0.43
2023-03-02T13:52:48.697Z,1.00
2023-03-02T13:57:53.133Z,0.77
2023-03-02T14:02:57.437Z,0.60
2023-03-02T14:08:01.404Z,0.95
2023-03-02T14:13:13.384Z,0.98
2023-03-02T14:18:28.762Z,1.05
2023-03-02T14:23:31.993Z,1.38
2023-03-02T14:28:38.025Z,0.60
2023-03-02T14:33:42.947Z,1.00
2023-03-02T14:38:46.017Z,0.90
2023-03-02T14:43:49.571Z,1.20
2023-03-02T14:48:52.656Z,0.63
2023-03-02T14:53:59.618Z,0.57
2023-03-02T14:59:02.611Z,1.10
2023-03-02T15:04:05.806Z,0.45
2023-03-02T15:09:09.029Z,1.00
2023-03-02T15:14:12.013Z,0.85
2023-03-02T15:19:15.023Z,0.90
2023-03-02T15:24:18.000Z,1.10
2023-03-02T15:29:21.520Z,0.85
2023-03-02T15:34:24.553Z,1.25
2023-03-02T15:39:27.598Z,0.63
2023-03-02T15:44:30.801Z,1.50
2023-03-02T15:49:33.942Z,1.00
2023-03-02T15:54:36.987Z,1.20
2023-03-02T15:59:39.967Z,1.13
2023-03-02T16:04:42.985Z,0.75
2023-03-02T16:09:46.714Z,1.00
2023-03-02T16:14:49.872Z,1.17
2023-03-02T16:19:52.915Z,0.93
2023-03-02T16:24:55.865Z,1.30
2023-03-02T16:29:59.056Z,0.70
2023-03-02T16:35:02.082Z,0.98
2023-03-02T16:40:06.057Z,0.82
2023-03-02T16:45:09.605Z,1.10
2023-03-02T16:50:13.763Z,0.98
2023-03-02T16:55:19.675Z,1.10
2023-03-02T17:00:24.290Z,1.13
2023-03-02T17:05:27.354Z,0.93
2023-03-02T17:10:30.496Z,1.00
2023-03-02T17:15:34.020Z,0.98
2023-03-02T17:20:37.894Z,1.20
2023-03-02T17:25:40.986Z,0.82
2023-03-02T17:30:45.281Z,0.90
2023-03-02T17:35:48.504Z,0.80
2023-03-02T17:40:51.646Z,2.35
2023-03-02T17:45:54.782Z,1.00
2023-03-02T17:50:57.762Z,1.27
2023-03-02T17:56:01.093Z,1.23
2023-03-02T18:01:04.730Z,1.10
2023-03-02T18:06:07.948Z,1.73
2023-03-02T18:11:11.250Z,0.95
2023-03-02T18:16:14.276Z,1.13
2023-03-02T18:21:18.667Z,1.27
2023-03-02T18:26:22.036Z,1.13
2023-03-02T18:31:25.097Z,2.95
2023-03-02T18:36:28.730Z,0.95
2023-03-02T18:41:32.744Z,0.77
2023-03-02T18:46:35.967Z,0.95
2023-03-02T18:51:38.956Z,1.35
2023-03-02T18:56:42.142Z,0.90
2023-03-02T19:01:46.517Z,1.70
2023-03-02T19:06:50.184Z,1.17
2023-03-02T19:11:53.341Z,1.15
2023-03-02T19:16:56.408Z,1.00
2023-03-02T19:21:59.690Z,1.13
2023-03-02T19:27:03.041Z,1.58
2023-03-02T19:32:08.063Z,1.63
2023-03-02T19:37:11.077Z,1.00
2023-03-02T19:42:14.259Z,1.35
2023-03-02T19:47:17.449Z,1.55
2023-03-02T19:52:20.536Z,1.50
2023-03-02T19:57:25.453Z,1.40
2023-03-02T20:02:28.526Z,1.20
2023-03-02T20:07:31.555Z,1.40
2023-03-02T20:12:35.838Z,2.53
2023-03-02T20:17:38.852Z,1.67
2023-03-02T20:22:41.860Z,1.60
2023-03-02T20:27:44.969Z,1.67
2023-03-02T20:32:48.112Z,1.55
2023-03-02T20:37:51.367Z,1.80
2023-03-02T20:42:54.713Z,2.10
2023-03-02T20:47:58.186Z,2.08
2023-03-02T20:53:01.532Z,1.70
2023-03-02T20:58:05.766Z,1.60
2023-03-02T21:03:09.508Z,1.75
2023-03-02T21:08:15.129Z,1.65
2023-03-02T21:13:19.771Z,1.63
2023-03-02T21:18:23.027Z,1.98
2023-03-02T21:23:26.050Z,2.00
2023-03-02T21:28:29.113Z,1.90
2023-03-02T21:33:32.173Z,1.83
2023-03-02T21:38:35.209Z,2.58
2023-03-02T21:43:38.240Z,1.45
2023-03-02T21:48:41.214Z,2.15
2023-03-02T21:53:44.352Z,1.77
2023-03-02T21:58:49.190Z,1.58
2023-03-02T22:03:52.811Z,1.70
2023-03-02T22:08:57.364Z,1.77
2023-03-02T22:14:12.045Z,1.50
2023-03-02T22:19:25.480Z,1.70
2023-03-02T22:24:31.290Z,1.63
2023-03-02T22:29:45.722Z,1.67
2023-03-02T22:34:51.466Z,1.73
2023-03-02T22:39:56.720Z,1.55
2023-03-02T22:45:15.059Z,1.40
2023-03-02T22:50:29.607Z,1.27
2023-03-02T22:55:40.140Z,1.30
2023-03-02T23:00:43.171Z,1.48
2023-03-02T23:05:49.520Z,1.60
2023-03-02T23:10:54.822Z,1.50
2023-03-02T23:15:58.010Z,1.80
2023-03-02T23:21:01.049Z,1.27
2023-03-02T23:26:04.069Z,1.30
2023-03-02T23:31:07.581Z,1.10
2023-03-02T23:36:11.027Z,1.30
2023-03-02T23:41:14.710Z,1.30
2023-03-02T23:46:17.755Z,1.20
2023-03-02T23:51:20.821Z,1.10
2023-03-02T23:56:24.346Z,1.20
